createdAt,value
2023-06-09T00:04:26.660Z,6
2023-06-09T00:10:12.394Z,6.2
2023-06-09T00:15:57.263Z,5.3
2023-06-09T00:21:42.127Z,5.8
2023-06-09T00:27:26.933Z,5.8
2023-06-09T00:33:12.077Z,5.6
2023-06-09T00:38:57.118Z,5.4
2023-06-09T00:44:41.793Z,5.6
2023-06-09T00:50:27.616Z,5.7
2023-06-09T00:56:12.696Z,5.5
2023-06-09T01:01:57.568Z,6.1
2023-06-09T01:07:45.636Z,5.4
2023-06-09T01:13:36.649Z,5.6
2023-06-09T01:19:26.309Z,5.4
2023-06-09T01:25:14.412Z,5.7
2023-06-09T01:31:00.565Z,5.9
2023-06-09T01:36:46.322Z,5.7
2023-06-09T01:42:31.023Z,7.1
2023-06-09T01:48:19.881Z,5.7
2023-06-09T01:54:06.387Z,5.6
2023-06-09T01:59:55.886Z,5.9
2023-06-09T02:05:41.638Z,5.6
2023-06-09T02:11:26.814Z,5.4
2023-06-09T02:17:12.943Z,5.6
2023-06-09T02:22:57.946Z,5.5
2023-06-09T02:28:43.999Z,6
2023-06-09T02:34:28.845Z,5.6
2023-06-09T02:40:14.849Z,6
2023-06-09T02:45:59.894Z,6.1
2023-06-09T02:51:44.750Z,5.7
2023-06-09T02:57:30.311Z,6.1
2023-06-09T03:03:16.563Z,5.8
2023-06-09T03:09:02.510Z,6.2
2023-06-09T03:14:47.328Z,6.1
2023-06-09T03:20:33.413Z,6
2023-06-09T03:26:18.119Z,5.7
2023-06-09T03:32:02.898Z,6.3
2023-06-09T03:37:47.684Z,6
2023-06-09T03:43:32.673Z,5.9
2023-06-09T03:49:17.558Z,6
2023-06-09T03:55:02.614Z,5.7
2023-06-09T04:00:47.636Z,6.2
2023-06-09T04:06:34.635Z,6.1
2023-06-09T04:12:19.595Z,6.1
2023-06-09T04:18:09.466Z,6.6
2023-06-09T04:23:54.882Z,6.2
2023-06-09T04:29:39.802Z,6.3
2023-06-09T04:35:24.527Z,6.2
2023-06-09T04:41:09.602Z,13.1
2023-06-09T04:46:54.874Z,12.6
2023-06-09T04:52:39.762Z,14.5
2023-06-09T04:58:24.760Z,14.3
2023-06-09T05:04:10.142Z,14.5
2023-06-09T05:09:55.019Z,13.7
2023-06-09T05:15:40.083Z,14.9
2023-06-09T05:21:24.928Z,15.8
2023-06-09T05:27:10.059Z,13.9
2023-06-09T05:32:54.968Z,14.2
2023-06-09T05:38:39.889Z,17.5
2023-06-09T05:44:24.924Z,14.7
2023-06-09T05:50:11.328Z,14.5
2023-06-09T05:55:56.332Z,13
2023-06-09T06:01:41.273Z,12.1
2023-06-09T06:07:26.645Z,12
2023-06-09T06:13:11.564Z,10.5
2023-06-09T06:18:56.710Z,12.7
2023-06-09T06:24:41.732Z,11.2
2023-06-09T06:30:27.660Z,24
2023-06-09T06:36:13.279Z,10.2
2023-06-09T06:41:58.331Z,9
2023-06-09T06:47:43.932Z,10.2
2023-06-09T06:53:30.107Z,8.6
2023-06-09T06:59:14.916Z,7.6
2023-06-09T07:04:59.703Z,6.6
2023-06-09T07:10:45.098Z,6.7
2023-06-09T07:16:29.999Z,6.8
2023-06-09T07:22:15.119Z,5.8
2023-06-09T07:28:01.002Z,8.8
2023-06-09T07:33:45.985Z,7
2023-06-09T07:39:30.881Z,7
2023-06-09T07:45:16.671Z,8
2023-06-09T07:51:05.736Z,6.7
2023-06-09T07:56:50.726Z,8.3
2023-06-09T08:02:35.763Z,8
2023-06-09T08:08:20.940Z,7.3
2023-06-09T08:14:05.796Z,6.2
2023-06-09T08:19:50.882Z,6.4
2023-06-09T08:25:35.864Z,5.7
2023-06-09T08:31:20.876Z,8.9
2023-06-09T08:37:07.394Z,7.2
2023-06-09T08:42:53.418Z,8
2023-06-09T08:48:40.876Z,8.3
2023-06-09T08:54:26.290Z,8.1
2023-06-09T09:00:13.515Z,8.2
2023-06-09T09:05:58.434Z,7.2
2023-06-09T09:11:43.478Z,6.2
2023-06-09T09:17:29.477Z,7.1
2023-06-09T09:23:14.736Z,8.3
2023-06-09T09:29:00.065Z,7.1
2023-06-09T09:34:45.312Z,5.9
2023-06-09T09:40:30.110Z,7
2023-06-09T09:46:15.323Z,5
2023-06-09T09:52:00.937Z,6.4
2023-06-09T09:57:47.951Z,5.1
2023-06-09T10:03:33.673Z,6.4
2023-06-09T10:09:19.026Z,8
2023-06-09T10:15:03.749Z,8.3
2023-06-09T10:20:49.150Z,6.1
2023-06-09T10:26:34.242Z,4.9
2023-06-09T10:32:20.256Z,5.6
2023-06-09T10:38:10.261Z,4.9
2023-06-09T10:44:06.516Z,5.7
2023-06-09T10:49:51.564Z,7.2
2023-06-09T10:55:36.734Z,4.6
2023-06-09T11:01:23.133Z,5.5
2023-06-09T11:07:18.021Z,5.2
2023-06-09T11:13:03.336Z,5.7
2023-06-09T11:18:48.902Z,5.8
2023-06-09T11:24:38.800Z,5.9
2023-06-09T11:30:23.916Z,7.3
2023-06-09T11:36:10.403Z,9
2023-06-09T11:42:00.554Z,10.8
2023-06-09T11:47:46.000Z,6.9
2023-06-09T11:53:30.771Z,6
2023-06-09T11:59:16.207Z,4.8
2023-06-09T12:05:02.446Z,7
2023-06-09T12:10:47.583Z,4.4
2023-06-09T12:16:32.884Z,6.1
2023-06-09T12:22:17.969Z,4.7
2023-06-09T12:28:08.729Z,5
2023-06-09T12:33:55.356Z,3.9
2023-06-09T12:39:40.555Z,5.5
2023-06-09T12:45:25.445Z,4.5
2023-06-09T12:51:10.516Z,4.2
2023-06-09T12:56:55.435Z,6
2023-06-09T13:02:40.916Z,5.1
2023-06-09T13:08:28.344Z,4.1
2023-06-09T13:14:13.244Z,6.2
2023-06-09T13:19:58.127Z,6.2
2023-06-09T13:25:44.329Z,5.2
2023-06-09T13:31:29.441Z,6.5
2023-06-09T13:37:14.426Z,5
2023-06-09T13:42:59.519Z,5.4
2023-06-09T13:48:45.151Z,4.3
2023-06-09T13:54:29.997Z,5.7
2023-06-09T14:00:16.280Z,6.5
2023-06-09T14:06:01.720Z,4.2
2023-06-09T14:11:47.010Z,5.6
2023-06-09T14:17:32.421Z,4.2
2023-06-09T14:23:17.335Z,3.3
2023-06-09T14:29:02.292Z,4.3
2023-06-09T14:34:47.295Z,4.9
2023-06-09T14:40:35.954Z,5.7
2023-06-09T14:46:22.010Z,3.1
2023-06-09T14:52:07.471Z,3.5
2023-06-09T14:57:52.676Z,3.7
2023-06-09T15:03:39.775Z,3.2
2023-06-09T15:09:24.978Z,4.2
2023-06-09T15:15:11.613Z,2.7
2023-06-09T15:20:56.898Z,3.7
2023-06-09T15:26:42.106Z,3.4
2023-06-09T15:32:28.373Z,4.8
2023-06-09T15:38:14.838Z,4.3
2023-06-09T15:44:00.527Z,4.4
2023-06-09T15:49:45.342Z,4
2023-06-09T15:55:30.514Z,4.3
2023-06-09T16:01:15.651Z,4.3
2023-06-09T16:07:00.605Z,4.6
2023-06-09T16:12:45.523Z,5.3
2023-06-09T16:18:30.513Z,3.1
2023-06-09T16:24:15.999Z,3.7
2023-06-09T16:30:01.127Z,3.1
2023-06-09T16:35:46.122Z,3.6
2023-06-09T16:41:31.123Z,3.4
2023-06-09T16:47:15.977Z,3.8
2023-06-09T16:53:00.881Z,3.8
2023-06-09T16:58:45.765Z,3.9
2023-06-09T17:04:30.734Z,4
2023-06-09T17:10:16.102Z,4.4
2023-06-09T17:16:01.093Z,6.8
2023-06-09T17:21:46.962Z,4.4
2023-06-09T17:27:31.878Z,9.2
2023-06-09T17:33:17.046Z,6.4
2023-06-09T17:39:02.145Z,3.6
2023-06-09T17:44:46.950Z,11.6
2023-06-09T17:50:31.997Z,5.5
2023-06-09T17:56:17.168Z,4.7
2023-06-09T18:02:02.194Z,3.3
2023-06-09T18:07:47.837Z,5.8
2023-06-09T18:13:32.691Z,7
2023-06-09T18:19:17.682Z,8.1
2023-06-09T18:25:02.609Z,4.3
2023-06-09T18:30:47.782Z,4.5
2023-06-09T18:36:35.846Z,3.2
2023-06-09T18:42:20.574Z,3.1
2023-06-09T18:48:05.686Z,5.9
2023-06-09T18:53:50.679Z,5.4
2023-06-09T18:59:36.975Z,4.4
2023-06-09T19:05:22.027Z,4
2023-06-09T19:11:06.726Z,4.1
2023-06-09T19:16:51.737Z,4.4
2023-06-09T19:22:36.767Z,4.7
2023-06-09T19:28:21.706Z,4.3
2023-06-09T19:34:06.962Z,5.8
2023-06-09T19:39:51.761Z,4.8
2023-06-09T19:45:36.598Z,3.8
2023-06-09T19:51:22.217Z,5.4
2023-06-09T19:57:07.606Z,6.1
2023-06-09T20:02:52.790Z,6.5
2023-06-09T20:08:37.534Z,6
2023-06-09T20:14:22.559Z,6.3
2023-06-09T20:20:07.457Z,6
2023-06-09T20:25:53.354Z,4.8
2023-06-09T20:31:38.498Z,7.9
2023-06-09T20:37:23.273Z,6.9
2023-06-09T20:43:09.111Z,4.1
2023-06-09T20:48:54.033Z,6.1
2023-06-09T20:54:39.950Z,5
2023-06-09T21:00:25.116Z,5.7
2023-06-09T21:06:10.002Z,5
2023-06-09T21:11:55.238Z,5.8
2023-06-09T21:17:40.643Z,5.9
2023-06-09T21:23:25.673Z,6.4
2023-06-09T21:29:10.608Z,5.5
2023-06-09T21:35:03.692Z,5.8
2023-06-09T21:40:48.577Z,5.1
2023-06-09T21:46:33.413Z,7.4
2023-06-09T21:52:18.306Z,5.3
2023-06-09T21:58:03.231Z,8.2
2023-06-09T22:03:48.313Z,5.2
2023-06-09T22:09:33.366Z,6.8
2023-06-09T22:15:19.132Z,7
2023-06-09T22:21:04.020Z,5.5
2023-06-09T22:27:02.806Z,6.3
2023-06-09T22:32:47.872Z,10
2023-06-09T22:38:32.813Z,6.3
2023-06-09T22:44:17.549Z,5.7
2023-06-09T22:50:13.430Z,7.5
2023-06-09T22:55:58.566Z,7.8
2023-06-09T23:01:43.640Z,5.6
2023-06-09T23:07:28.750Z,6.2
2023-06-09T23:13:13.623Z,5.6
2023-06-09T23:18:58.400Z,7.4
2023-06-09T23:24:43.713Z,6.1
2023-06-09T23:30:28.517Z,5.3
2023-06-09T23:36:14.446Z,4.8
2023-06-09T23:42:02.736Z,4.8
2023-06-09T23:47:47.432Z,6.1
2023-06-09T23:53:32.400Z,5.2
2023-06-09T23:59:17.554Z,4.8
